createdAt,value
2023-03-21T00:00:36.431Z,17.63
2023-03-21T00:01:39.162Z,16.70
2023-03-21T00:02:41.652Z,16.58
2023-03-21T00:03:44.605Z,16.50
2023-03-21T00:04:52.369Z,18.27
2023-03-21T00:05:56.178Z,18.10
2023-03-21T00:06:58.693Z,18.05
2023-03-21T00:08:02.699Z,18.30
2023-03-21T00:09:05.378Z,18.30
2023-03-21T00:10:15.367Z,16.38
2023-03-21T00:11:21.721Z,17.48
2023-03-21T00:12:24.510Z,17.63
2023-03-21T00:13:28.312Z,19.58
2023-03-21T00:14:31.208Z,18.25
2023-03-21T00:15:42.421Z,17.85
2023-03-21T00:16:52.552Z,17.70
2023-03-21T00:18:03.731Z,17.00
2023-03-21T00:19:06.716Z,18.02
2023-03-21T00:20:15.374Z,17.92
2023-03-21T00:21:42.298Z,18.05
2023-03-21T00:22:42.284Z,18.33
2023-03-21T00:23:46.522Z,16.25
2023-03-21T00:24:50.878Z,17.48
2023-03-21T00:25:53.841Z,16.92
2023-03-21T00:27:03.513Z,19.13
2023-03-21T00:28:18.568Z,17.08
2023-03-21T00:29:21.186Z,17.67
2023-03-21T00:30:24.131Z,17.38
2023-03-21T00:31:27.251Z,19.27
2023-03-21T00:32:29.736Z,18.05
2023-03-21T00:33:32.834Z,18.70
2023-03-21T00:34:42.998Z,17.45
2023-03-21T00:36:01.815Z,18.05
2023-03-21T00:37:08.119Z,18.38
2023-03-21T00:38:11.241Z,17.83
2023-03-21T00:39:14.228Z,18.50
2023-03-21T00:40:26.676Z,19.20
2023-03-21T00:41:48.929Z,18.60
2023-03-21T00:42:51.923Z,16.98
2023-03-21T00:43:55.857Z,17.77
2023-03-21T00:44:58.426Z,17.88
2023-03-21T00:46:00.952Z,18.38
2023-03-21T00:47:07.850Z,18.17
2023-03-21T00:48:11.172Z,17.83
2023-03-21T00:49:13.784Z,17.55
2023-03-21T00:50:16.819Z,18.83
2023-03-21T00:51:27.140Z,17.40
2023-03-21T00:52:40.261Z,17.85
2023-03-21T00:53:43.562Z,18.02
2023-03-21T00:54:46.368Z,19.15
2023-03-21T00:55:49.382Z,17.77
2023-03-21T00:56:52.071Z,17.50
2023-03-21T00:58:01.664Z,18.75
2023-03-21T00:59:04.919Z,17.65
2023-03-21T01:00:10.801Z,18.48
2023-03-21T01:01:13.515Z,17.05
2023-03-21T01:02:23.086Z,17.45
2023-03-21T01:03:26.704Z,16.40
2023-03-21T01:04:29.523Z,16.52
2023-03-21T01:05:54.499Z,17.48
2023-03-21T01:06:56.991Z,18.00
2023-03-21T01:07:59.885Z,16.23
2023-03-21T01:09:02.398Z,17.90
2023-03-21T01:10:05.286Z,17.38
2023-03-21T01:11:13.985Z,16.83
2023-03-21T01:12:16.921Z,17.08
2023-03-21T01:13:21.224Z,16.48
2023-03-21T01:14:24.995Z,16.80
2023-03-21T01:15:29.392Z,15.77
2023-03-21T01:16:32.277Z,16.42
2023-03-21T01:17:34.906Z,16.05
2023-03-21T01:18:38.931Z,16.40
2023-03-21T01:19:51.525Z,16.25
2023-03-21T01:20:57.423Z,16.48
2023-03-21T01:22:00.107Z,16.08
2023-03-21T01:23:02.891Z,16.55
2023-03-21T01:24:05.881Z,18.10
2023-03-21T01:25:21.879Z,16.48
2023-03-21T01:26:25.877Z,16.05
2023-03-21T01:27:28.599Z,16.70
2023-03-21T01:28:31.468Z,16.02
2023-03-21T01:29:34.042Z,14.98
2023-03-21T01:30:41.736Z,16.30
2023-03-21T01:31:44.700Z,15.77
2023-03-21T01:32:47.914Z,15.05
2023-03-21T01:33:50.473Z,17.20
2023-03-21T01:34:53.154Z,15.32
2023-03-21T01:36:10.282Z,15.13
2023-03-21T01:37:17.872Z,15.40
2023-03-21T01:38:24.106Z,15.10
2023-03-21T01:39:26.665Z,16.73
2023-03-21T01:40:30.875Z,15.85
2023-03-21T01:41:44.834Z,14.35
2023-03-21T01:42:56.942Z,14.52
2023-03-21T01:43:59.717Z,15.10
2023-03-21T01:45:52.700Z,14.18
2023-03-21T01:47:12.721Z,12.80
2023-03-21T01:48:37.793Z,14.13
2023-03-21T01:49:46.039Z,15.85
2023-03-21T01:50:55.412Z,15.18
2023-03-21T01:52:26.455Z,13.63
2023-03-21T01:53:34.056Z,14.55
2023-03-21T01:54:38.956Z,14.55
2023-03-21T01:55:42.319Z,14.27
2023-03-21T01:56:56.733Z,12.90
2023-03-21T01:58:06.295Z,14.75
2023-03-21T01:59:40.730Z,14.20
2023-03-21T02:01:02.996Z,12.80
2023-03-21T02:02:28.202Z,14.77
2023-03-21T02:03:53.853Z,13.43
2023-03-21T02:05:05.303Z,14.23
2023-03-21T02:06:13.966Z,14.25
2023-03-21T02:07:25.815Z,15.10
2023-03-21T02:08:39.076Z,14.40
2023-03-21T02:09:47.922Z,13.75
2023-03-21T02:10:57.167Z,13.07
2023-03-21T02:12:10.447Z,13.88
2023-03-21T02:13:13.076Z,13.65
2023-03-21T02:14:28.298Z,13.80
2023-03-21T02:15:38.681Z,13.40
2023-03-21T02:17:03.954Z,13.15
2023-03-21T02:18:21.986Z,12.57
2023-03-21T02:19:53.318Z,13.50
2023-03-21T02:21:20.539Z,12.98
2023-03-21T02:22:41.413Z,13.18
2023-03-21T02:24:09.685Z,13.57
2023-03-21T02:25:41.628Z,14.40
2023-03-21T02:27:30.924Z,14.00
2023-03-21T02:28:46.248Z,12.82
2023-03-21T02:30:13.007Z,14.55
2023-03-21T02:31:32.416Z,13.80
2023-03-21T02:32:47.007Z,15.18
2023-03-21T02:33:58.806Z,12.82
2023-03-21T02:35:25.361Z,13.32
2023-03-21T02:36:33.495Z,13.25
2023-03-21T02:38:00.071Z,13.00
2023-03-21T02:39:25.725Z,14.43
2023-03-21T02:40:54.178Z,14.40
2023-03-21T02:42:14.212Z,12.07
2023-03-21T02:43:25.681Z,13.20
2023-03-21T02:44:42.590Z,12.48
2023-03-21T02:45:58.566Z,12.95
2023-03-21T02:47:20.758Z,12.52
2023-03-21T02:48:33.069Z,13.07
2023-03-21T02:49:47.985Z,11.38
2023-03-21T02:50:52.701Z,11.35
2023-03-21T02:52:00.305Z,12.65
2023-03-21T02:53:09.583Z,13.02
2023-03-21T02:54:38.263Z,12.13
2023-03-21T02:55:44.513Z,12.93
2023-03-21T02:56:50.001Z,13.63
2023-03-21T02:57:54.441Z,13.95
2023-03-21T02:58:57.096Z,13.13
2023-03-21T03:00:10.589Z,11.30
2023-03-21T03:01:16.781Z,12.20
2023-03-21T03:02:27.175Z,11.30
2023-03-21T03:03:34.364Z,12.48
2023-03-21T03:04:39.285Z,11.85
2023-03-21T03:05:49.684Z,11.80
2023-03-21T03:07:24.241Z,12.77
2023-03-21T03:09:01.876Z,10.48
2023-03-21T03:10:16.095Z,11.70
2023-03-21T03:11:23.539Z,12.68
2023-03-21T03:12:46.338Z,11.98
2023-03-21T03:14:31.672Z,11.45
2023-03-21T03:15:45.794Z,11.25
2023-03-21T03:16:57.719Z,11.18
2023-03-21T03:18:53.920Z,11.27
2023-03-21T03:20:15.128Z,11.45
2023-03-21T03:21:20.757Z,12.75
2023-03-21T03:22:41.729Z,11.95
2023-03-21T03:23:58.378Z,12.00
2023-03-21T03:25:18.488Z,11.07
2023-03-21T03:26:35.377Z,11.13
2023-03-21T03:27:41.200Z,10.32
2023-03-21T03:28:48.594Z,10.23
2023-03-21T03:29:53.986Z,10.75
2023-03-21T03:31:09.232Z,10.07
2023-03-21T03:32:19.947Z,10.25
2023-03-21T03:33:23.760Z,11.57
2023-03-21T03:34:33.097Z,10.90
2023-03-21T03:35:35.727Z,10.98
2023-03-21T03:36:42.356Z,11.63
2023-03-21T03:37:54.325Z,10.00
2023-03-21T03:38:57.959Z,10.45
2023-03-21T03:40:29.341Z,11.65
2023-03-21T03:42:08.093Z,10.75
2023-03-21T03:43:23.040Z,9.85
2023-03-21T03:44:28.446Z,10.40
2023-03-21T03:45:42.987Z,10.77
2023-03-21T03:47:17.456Z,9.32
2023-03-21T03:48:32.928Z,10.85
2023-03-21T03:49:47.030Z,10.05
2023-03-21T03:50:55.422Z,11.15
2023-03-21T03:52:27.872Z,9.15
2023-03-21T03:53:44.769Z,9.93
2023-03-21T03:54:49.493Z,9.63
2023-03-21T03:55:54.425Z,9.25
2023-03-21T03:56:57.564Z,9.68
2023-03-21T03:58:03.168Z,10.10
2023-03-21T03:59:07.429Z,11.70
2023-03-21T04:00:33.462Z,10.18
2023-03-21T04:01:36.019Z,11.30
2023-03-21T04:02:39.047Z,10.05
2023-03-21T04:03:49.810Z,9.85
2023-03-21T04:04:53.552Z,10.40
2023-03-21T04:05:57.166Z,9.90
2023-03-21T04:06:59.952Z,10.73
2023-03-21T04:08:02.944Z,9.65
2023-03-21T04:09:20.645Z,8.73
2023-03-21T04:10:26.464Z,9.80
2023-03-21T04:11:29.861Z,10.70
2023-03-21T04:12:32.409Z,10.23
2023-03-21T04:13:55.379Z,8.55
2023-03-21T04:15:08.155Z,9.82
2023-03-21T04:16:14.390Z,9.25
2023-03-21T04:17:18.762Z,9.05
2023-03-21T04:18:23.119Z,8.63
2023-03-21T04:19:26.717Z,9.93
2023-03-21T04:20:36.490Z,8.75
2023-03-21T04:21:49.215Z,9.68
2023-03-21T04:22:54.395Z,8.75
2023-03-21T04:23:57.642Z,9.02
2023-03-21T04:25:01.636Z,10.32
2023-03-21T04:26:06.284Z,8.38
2023-03-21T04:27:16.042Z,8.75
2023-03-21T04:28:24.723Z,9.25
2023-03-21T04:29:38.217Z,9.43
2023-03-21T04:31:05.214Z,8.10
2023-03-21T04:32:24.674Z,8.68
2023-03-21T04:33:38.649Z,8.75
2023-03-21T04:34:50.186Z,8.73
2023-03-21T04:35:59.060Z,8.18
2023-03-21T04:37:11.234Z,8.32
2023-03-21T04:38:15.814Z,8.90
2023-03-21T04:39:19.037Z,9.02
2023-03-21T04:40:25.664Z,9.15
2023-03-21T04:41:30.842Z,8.80
2023-03-21T04:42:36.529Z,8.82
2023-03-21T04:43:38.999Z,7.93
2023-03-21T04:44:41.841Z,7.82
2023-03-21T04:45:47.040Z,8.07
2023-03-21T04:46:50.532Z,9.30
2023-03-21T04:47:53.416Z,7.45
2023-03-21T04:48:56.032Z,8.05
2023-03-21T04:49:58.633Z,8.35
2023-03-21T04:51:01.390Z,8.55
2023-03-21T04:52:05.044Z,8.40
2023-03-21T04:53:07.593Z,8.95
2023-03-21T04:55:12.496Z,7.78
2023-03-21T04:56:15.553Z,8.75
2023-03-21T04:57:19.997Z,8.02
2023-03-21T04:58:22.781Z,8.48
2023-03-21T04:59:25.765Z,7.82
2023-03-21T05:00:28.661Z,8.02
2023-03-21T05:01:34.143Z,7.43
2023-03-21T05:02:37.760Z,7.47
2023-03-21T05:03:41.942Z,8.10
2023-03-21T05:04:44.583Z,7.75
2023-03-21T05:05:47.952Z,6.97
2023-03-21T05:06:50.584Z,7.70
2023-03-21T05:07:53.055Z,6.82
2023-03-21T05:08:59.976Z,6.35
2023-03-21T05:10:02.870Z,6.95
2023-03-21T05:11:06.430Z,6.47
2023-03-21T05:12:09.044Z,7.45
2023-03-21T05:13:11.780Z,7.07
2023-03-21T05:14:20.982Z,6.57
2023-03-21T05:15:23.744Z,6.88
2023-03-21T05:16:30.740Z,6.40
2023-03-21T05:17:34.483Z,6.43
2023-03-21T05:18:38.937Z,7.07
2023-03-21T05:19:50.551Z,7.20
2023-03-21T05:20:54.257Z,6.35
2023-03-21T05:21:57.167Z,6.22
2023-03-21T05:23:02.538Z,6.55
2023-03-21T05:24:06.578Z,5.82
2023-03-21T05:25:10.376Z,5.60
2023-03-21T05:26:35.585Z,6.07
2023-03-21T05:27:54.043Z,5.88
2023-03-21T05:29:00.449Z,6.05
2023-03-21T05:30:12.742Z,6.20
2023-03-21T05:31:16.970Z,6.65
2023-03-21T05:32:21.363Z,5.88
2023-03-21T05:33:23.862Z,7.15
2023-03-21T05:34:27.102Z,5.78
2023-03-21T05:35:30.564Z,6.20
2023-03-21T05:36:36.166Z,6.22
2023-03-21T05:37:41.553Z,6.53
2023-03-21T05:38:46.287Z,6.47
2023-03-21T05:39:49.573Z,6.55
2023-03-21T05:40:58.689Z,6.85
2023-03-21T05:42:01.401Z,7.00
2023-03-21T05:43:03.926Z,7.15
2023-03-21T05:44:06.490Z,6.97
2023-03-21T05:45:09.341Z,7.43
2023-03-21T05:46:12.427Z,7.28
2023-03-21T05:47:16.411Z,6.78
2023-03-21T05:48:21.549Z,7.95
2023-03-21T05:49:40.940Z,7.57
2023-03-21T05:50:44.089Z,8.38
2023-03-21T05:51:51.688Z,8.35
2023-03-21T05:52:54.107Z,7.72
2023-03-21T05:53:56.688Z,8.52
2023-03-21T05:54:59.388Z,9.10
2023-03-21T05:56:03.848Z,7.55
2023-03-21T05:57:35.201Z,7.20
2023-03-21T05:58:40.184Z,7.32
2023-03-21T05:59:42.720Z,8.65
2023-03-21T06:00:45.597Z,6.75
2023-03-21T06:02:04.470Z,7.47
2023-03-21T06:03:07.279Z,7.97
2023-03-21T06:04:29.560Z,7.60
2023-03-21T06:05:32.251Z,7.57
2023-03-21T06:06:35.133Z,7.25
2023-03-21T06:07:38.101Z,6.35
2023-03-21T06:08:41.188Z,6.78
2023-03-21T06:09:43.671Z,7.25
2023-03-21T06:10:46.248Z,6.47
2023-03-21T06:11:52.260Z,6.40
2023-03-21T06:13:21.579Z,6.35
2023-03-21T06:14:25.257Z,7.40
2023-03-21T06:15:44.882Z,5.60
2023-03-21T06:16:54.030Z,6.07
2023-03-21T06:17:56.818Z,6.90
2023-03-21T06:18:59.643Z,6.13
2023-03-21T06:20:16.299Z,5.93
2023-03-21T06:21:26.357Z,6.43
2023-03-21T06:22:29.270Z,5.70
2023-03-21T06:23:31.776Z,5.45
2023-03-21T06:24:34.446Z,6.00
2023-03-21T06:25:37.440Z,5.63
2023-03-21T06:26:42.462Z,6.22
2023-03-21T06:27:45.191Z,6.55
2023-03-21T06:28:47.964Z,5.60
2023-03-21T06:29:50.620Z,5.55
2023-03-21T06:30:53.580Z,5.40
2023-03-21T06:31:59.854Z,5.55
2023-03-21T06:33:02.730Z,5.50
2023-03-21T06:34:05.653Z,5.13
2023-03-21T06:35:08.789Z,5.55
2023-03-21T06:36:12.260Z,5.90
2023-03-21T06:37:14.953Z,5.40
2023-03-21T06:38:17.816Z,5.20
2023-03-21T06:39:21.299Z,4.72
2023-03-21T06:40:23.959Z,6.47
2023-03-21T06:41:27.190Z,4.80
2023-03-21T06:42:36.714Z,5.50
2023-03-21T06:43:46.458Z,5.50
2023-03-21T06:44:48.980Z,5.78
2023-03-21T06:45:52.312Z,6.22
2023-03-21T06:46:55.100Z,6.07
2023-03-21T06:47:57.974Z,6.00
2023-03-21T06:49:09.997Z,5.03
2023-03-21T06:50:12.564Z,6.05
2023-03-21T06:51:18.217Z,5.22
2023-03-21T06:52:39.423Z,5.38
2023-03-21T06:53:41.950Z,5.45
2023-03-21T06:54:44.450Z,5.82
2023-03-21T06:55:52.846Z,5.82
2023-03-21T06:56:56.753Z,5.70
2023-03-21T06:58:03.781Z,5.68
2023-03-21T06:59:06.432Z,5.35
2023-03-21T07:00:35.039Z,5.50
2023-03-21T07:01:38.129Z,5.53
2023-03-21T07:02:42.847Z,4.97
2023-03-21T07:03:50.356Z,5.13
2023-03-21T07:04:55.614Z,4.97
2023-03-21T07:06:05.812Z,5.70
2023-03-21T07:07:08.414Z,6.15
2023-03-21T07:08:12.786Z,5.07
2023-03-21T07:09:17.899Z,5.63
2023-03-21T07:10:20.910Z,4.88
2023-03-21T07:11:30.664Z,4.93
2023-03-21T07:12:35.867Z,6.18
2023-03-21T07:13:52.785Z,4.95
2023-03-21T07:14:55.477Z,6.15
2023-03-21T07:15:58.605Z,5.53
2023-03-21T07:17:01.092Z,5.93
2023-03-21T07:18:05.724Z,5.25
2023-03-21T07:19:09.380Z,5.40
2023-03-21T07:20:12.818Z,5.25
2023-03-21T07:21:15.567Z,5.35
2023-03-21T07:22:18.384Z,5.07
2023-03-21T07:23:23.367Z,5.80
2023-03-21T07:24:26.255Z,5.18
2023-03-21T07:25:28.993Z,5.68
2023-03-21T07:26:32.479Z,5.53
2023-03-21T07:27:35.544Z,6.05
2023-03-21T07:28:38.319Z,5.20
2023-03-21T07:29:41.571Z,5.45
2023-03-21T07:30:44.804Z,4.88
2023-03-21T07:31:47.927Z,5.72
2023-03-21T07:32:50.575Z,5.47
2023-03-21T07:33:53.778Z,5.15
2023-03-21T07:34:56.772Z,4.28
2023-03-21T07:36:00.558Z,4.43
2023-03-21T07:37:03.073Z,5.18
2023-03-21T07:38:06.792Z,4.93
2023-03-21T07:39:09.417Z,5.80
2023-03-21T07:40:13.367Z,5.45
2023-03-21T07:42:26.248Z,5.00
2023-03-21T07:43:37.110Z,5.13
2023-03-21T07:44:44.949Z,5.45
2023-03-21T07:45:47.638Z,5.30
2023-03-21T07:46:50.315Z,5.90
2023-03-21T07:47:54.564Z,4.90
2023-03-21T07:48:57.211Z,5.28
2023-03-21T07:50:00.051Z,5.40
2023-03-21T07:51:02.717Z,5.57
2023-03-21T07:52:06.845Z,5.13
2023-03-21T07:53:09.620Z,5.85
2023-03-21T07:54:12.127Z,5.78
2023-03-21T07:55:14.727Z,5.65
2023-03-21T07:56:17.316Z,5.03
2023-03-21T07:57:19.886Z,5.30
2023-03-21T07:58:23.650Z,4.90
2023-03-21T07:59:26.342Z,5.55
2023-03-21T08:00:29.102Z,5.28
2023-03-21T08:01:32.606Z,5.80
2023-03-21T08:02:35.224Z,5.32
2023-03-21T08:03:38.112Z,5.32
2023-03-21T08:04:40.888Z,5.40
2023-03-21T08:05:44.388Z,4.68
2023-03-21T08:06:46.874Z,5.18
2023-03-21T08:07:50.025Z,5.15
2023-03-21T08:08:52.559Z,5.57
2023-03-21T08:09:55.398Z,4.72
2023-03-21T08:10:58.224Z,4.93
2023-03-21T08:12:00.657Z,5.00
2023-03-21T08:13:03.742Z,4.68
2023-03-21T08:14:06.337Z,5.47
2023-03-21T08:15:09.183Z,4.72
2023-03-21T08:16:11.701Z,5.40
2023-03-21T08:17:14.146Z,5.43
2023-03-21T08:18:16.603Z,4.78
2023-03-21T08:19:21.748Z,5.38
2023-03-21T08:20:24.219Z,4.90
2023-03-21T08:21:27.598Z,5.30
2023-03-21T08:22:30.376Z,5.10
2023-03-21T08:23:33.228Z,5.45
2023-03-21T08:24:35.702Z,5.10
2023-03-21T08:25:38.412Z,5.00
2023-03-21T08:26:41.971Z,5.25
2023-03-21T08:27:46.080Z,5.25
2023-03-21T08:28:48.511Z,4.80
2023-03-21T08:29:50.982Z,5.05
2023-03-21T08:30:53.447Z,4.70
2023-03-21T08:31:56.267Z,4.95
2023-03-21T08:33:01.341Z,4.85
2023-03-21T08:34:04.233Z,4.53
2023-03-21T08:35:11.964Z,4.70
2023-03-21T08:36:15.753Z,3.80
2023-03-21T08:37:18.235Z,4.32
2023-03-21T08:38:21.656Z,4.82
2023-03-21T08:39:25.064Z,4.57
2023-03-21T08:40:27.504Z,4.72
2023-03-21T08:41:30.263Z,4.32
2023-03-21T08:42:32.835Z,4.35
2023-03-21T08:43:35.677Z,3.88
2023-03-21T08:44:39.773Z,3.97
2023-03-21T08:45:42.250Z,3.97
2023-03-21T08:46:44.818Z,4.53
2023-03-21T08:47:47.590Z,4.20
2023-03-21T08:48:50.263Z,3.33
2023-03-21T08:49:52.865Z,4.32
2023-03-21T08:50:55.597Z,3.92
2023-03-21T08:51:58.252Z,3.95
2023-03-21T08:53:00.975Z,4.20
2023-03-21T08:54:03.785Z,3.22
2023-03-21T08:55:06.766Z,3.60
2023-03-21T08:56:09.950Z,3.20
2023-03-21T08:57:12.359Z,4.43
2023-03-21T08:58:14.878Z,3.60
2023-03-21T08:59:17.378Z,3.92
2023-03-21T09:00:22.679Z,4.32
2023-03-21T09:01:26.317Z,3.65
2023-03-21T09:02:28.877Z,3.83
2023-03-21T09:03:31.462Z,4.22
2023-03-21T09:04:34.929Z,4.05
2023-03-21T09:05:37.650Z,3.83
2023-03-21T09:06:41.110Z,4.03
2023-03-21T09:07:44.135Z,4.13
2023-03-21T09:08:46.598Z,4.13
2023-03-21T09:10:08.068Z,4.40
2023-03-21T09:11:14.851Z,3.97
2023-03-21T09:12:17.385Z,4.00
2023-03-21T09:13:20.224Z,4.47
2023-03-21T09:14:28.484Z,3.78
2023-03-21T09:15:31.902Z,4.75
2023-03-21T09:16:34.817Z,4.63
2023-03-21T09:17:42.165Z,5.18
2023-03-21T09:18:48.972Z,5.05
2023-03-21T09:19:53.397Z,4.88
2023-03-21T09:20:56.559Z,5.28
2023-03-21T09:21:59.869Z,5.35
2023-03-21T09:23:02.722Z,5.57
2023-03-21T09:24:06.863Z,6.20
2023-03-21T09:25:11.415Z,5.95
2023-03-21T09:26:14.551Z,5.55
2023-03-21T09:27:18.214Z,5.85
2023-03-21T09:28:20.982Z,6.15
2023-03-21T09:29:23.497Z,6.85
2023-03-21T09:30:26.644Z,6.30
2023-03-21T09:31:29.404Z,5.88
2023-03-21T09:32:32.898Z,6.15
2023-03-21T09:33:35.459Z,6.07
2023-03-21T09:34:41.328Z,5.13
2023-03-21T09:35:44.045Z,6.15
2023-03-21T09:36:48.569Z,5.53
2023-03-21T09:37:51.371Z,4.47
2023-03-21T09:38:54.627Z,4.18
2023-03-21T09:39:58.372Z,4.40
2023-03-21T09:41:05.887Z,4.65
2023-03-21T09:42:22.066Z,5.60
2023-03-21T09:43:52.508Z,5.30
2023-03-21T09:45:11.822Z,5.40
2023-03-21T09:46:27.970Z,5.47
2023-03-21T09:47:34.817Z,5.28
2023-03-21T09:48:56.060Z,4.60
2023-03-21T09:50:15.097Z,4.15
2023-03-21T09:51:19.183Z,4.22
2023-03-21T09:52:27.100Z,3.80
2023-03-21T09:53:49.542Z,4.28
2023-03-21T09:54:52.995Z,3.95
2023-03-21T09:55:55.699Z,4.47
2023-03-21T09:57:01.807Z,4.97
2023-03-21T09:58:31.141Z,5.00
2023-03-21T09:59:40.338Z,4.45
2023-03-21T10:00:45.735Z,4.72
2023-03-21T10:01:49.396Z,4.82
2023-03-21T10:02:57.275Z,4.65
2023-03-21T10:04:05.860Z,4.50
2023-03-21T10:05:21.795Z,5.05
2023-03-21T10:06:29.447Z,6.22
2023-03-21T10:07:34.709Z,5.20
2023-03-21T10:08:41.920Z,4.70
2023-03-21T10:09:44.898Z,4.28
2023-03-21T10:10:53.087Z,4.47
2023-03-21T10:12:05.100Z,4.35
2023-03-21T10:13:15.917Z,4.53
2023-03-21T10:15:23.577Z,4.32
2023-03-21T10:16:50.332Z,5.15
2023-03-21T10:18:02.203Z,4.10
2023-03-21T10:19:11.065Z,4.45
2023-03-21T10:20:26.866Z,4.30
2023-03-21T10:21:58.508Z,4.45
2023-03-21T10:22:56.092Z,4.05
2023-03-21T10:23:59.668Z,4.53
2023-03-21T10:25:02.463Z,3.80
2023-03-21T10:26:07.506Z,4.10
2023-03-21T10:27:13.206Z,5.32
2023-03-21T10:28:21.552Z,5.88
2023-03-21T10:29:31.043Z,4.20
2023-03-21T10:30:44.686Z,4.38
2023-03-21T10:31:47.939Z,4.35
2023-03-21T10:32:50.612Z,4.35
2023-03-21T10:33:55.634Z,4.05
2023-03-21T10:34:59.036Z,4.55
2023-03-21T10:36:07.760Z,4.18
2023-03-21T10:37:12.004Z,4.05
2023-03-21T10:38:17.846Z,4.47
2023-03-21T10:39:41.229Z,3.92
2023-03-21T10:40:43.769Z,3.95
2023-03-21T10:41:46.260Z,4.55
2023-03-21T10:42:48.782Z,4.63
2023-03-21T10:44:11.947Z,3.85
2023-03-21T10:45:20.070Z,4.00
2023-03-21T10:46:23.954Z,4.28
2023-03-21T10:47:34.283Z,4.60
2023-03-21T10:48:40.076Z,3.47
2023-03-21T10:50:06.317Z,3.53
2023-03-21T10:51:08.801Z,3.35
2023-03-21T10:52:12.157Z,4.10
2023-03-21T10:53:38.477Z,3.10
2023-03-21T10:54:40.975Z,3.30
2023-03-21T10:55:45.110Z,3.13
2023-03-21T10:57:12.213Z,3.20
2023-03-21T10:58:25.118Z,3.33
2023-03-21T10:59:29.485Z,3.38
2023-03-21T11:00:36.487Z,2.53
2023-03-21T11:01:45.670Z,3.58
2023-03-21T11:02:49.927Z,3.00
2023-03-21T11:04:06.757Z,3.08
2023-03-21T11:05:37.259Z,3.55
2023-03-21T11:06:41.882Z,3.63
2023-03-21T11:07:45.020Z,4.10
2023-03-21T11:08:55.851Z,4.18
2023-03-21T11:10:00.867Z,3.75
2023-03-21T11:11:09.110Z,4.18
2023-03-21T11:12:14.442Z,3.53
2023-03-21T11:13:41.508Z,4.15
2023-03-21T11:14:49.017Z,3.90
2023-03-21T11:15:51.492Z,3.67
2023-03-21T11:16:54.050Z,4.15
2023-03-21T11:18:00.258Z,4.57
2023-03-21T11:19:12.698Z,4.57
2023-03-21T11:20:21.331Z,4.10
2023-03-21T11:21:29.663Z,4.57
2023-03-21T11:22:43.544Z,3.72
2023-03-21T11:23:48.638Z,3.03
2023-03-21T11:24:54.731Z,3.05
2023-03-21T11:25:59.449Z,3.38
2023-03-21T11:27:07.141Z,3.05
2023-03-21T11:28:24.766Z,3.47
2023-03-21T11:29:35.234Z,3.80
2023-03-21T11:30:37.846Z,3.60
2023-03-21T11:31:41.561Z,3.00
2023-03-21T11:32:44.073Z,3.88
2023-03-21T11:33:56.315Z,3.22
2023-03-21T11:35:07.891Z,4.10
2023-03-21T11:36:19.552Z,3.38
2023-03-21T11:37:32.107Z,3.90
2023-03-21T11:38:39.616Z,3.80
2023-03-21T11:39:44.739Z,2.88
2023-03-21T11:40:54.849Z,3.20
2023-03-21T11:41:57.762Z,4.03
2023-03-21T11:43:02.571Z,3.70
2023-03-21T11:44:05.566Z,3.63
2023-03-21T11:45:14.933Z,3.67
2023-03-21T11:46:24.251Z,3.90
2023-03-21T11:47:26.810Z,3.60
2023-03-21T11:48:29.723Z,2.92
2023-03-21T11:49:32.512Z,3.25
2023-03-21T11:50:40.612Z,3.90
2023-03-21T11:51:57.819Z,4.82
2023-03-21T11:53:29.443Z,3.08
2023-03-21T11:54:38.555Z,3.85
2023-03-21T11:55:59.023Z,4.18
2023-03-21T11:57:18.969Z,4.85
2023-03-21T11:58:33.180Z,3.90
2023-03-21T11:59:43.712Z,4.32
2023-03-21T12:00:59.706Z,3.40
2023-03-21T12:02:36.322Z,2.95
2023-03-21T12:04:18.385Z,2.67
2023-03-21T12:05:27.584Z,2.33
2023-03-21T12:06:47.717Z,2.78
2023-03-21T12:07:50.452Z,3.47
2023-03-21T12:09:06.108Z,3.35
2023-03-21T12:10:36.340Z,2.97
2023-03-21T12:11:59.888Z,3.13
2023-03-21T12:13:33.950Z,2.83
2023-03-21T12:14:55.604Z,2.90
2023-03-21T12:16:28.524Z,2.47
2023-03-21T12:17:52.620Z,3.10
2023-03-21T12:19:14.082Z,2.83
2023-03-21T12:20:37.824Z,3.60
2023-03-21T12:22:02.001Z,3.35
2023-03-21T12:23:39.751Z,4.32
2023-03-21T12:24:56.850Z,3.65
2023-03-21T12:26:23.344Z,4.75
2023-03-21T12:27:50.464Z,3.78
2023-03-21T12:29:11.406Z,4.80
2023-03-21T12:31:48.495Z,4.90
2023-03-21T12:32:53.815Z,3.90
2023-03-21T12:33:56.394Z,3.85
2023-03-21T12:35:27.769Z,3.25
2023-03-21T12:36:55.464Z,3.30
2023-03-21T12:38:13.708Z,3.20
2023-03-21T12:39:31.174Z,3.75
2023-03-21T12:40:43.848Z,2.95
2023-03-21T12:41:54.769Z,4.15
2023-03-21T12:43:13.180Z,3.17
2023-03-21T12:44:17.437Z,3.22
2023-03-21T12:45:45.765Z,3.28
2023-03-21T12:47:09.275Z,2.78
2023-03-21T12:48:19.433Z,3.75
2023-03-21T12:50:17.055Z,4.10
2023-03-21T12:51:24.510Z,2.80
2023-03-21T12:52:37.229Z,3.40
2023-03-21T12:53:59.226Z,3.28
2023-03-21T12:55:15.019Z,3.88
2023-03-21T12:56:23.088Z,4.00
2023-03-21T12:58:09.879Z,4.43
2023-03-21T12:59:12.715Z,3.08
2023-03-21T13:00:26.683Z,3.60
2023-03-21T13:01:29.492Z,3.38
2023-03-21T13:02:52.669Z,3.15
2023-03-21T13:04:28.188Z,3.53
2023-03-21T13:05:34.637Z,3.00
2023-03-21T13:06:38.040Z,3.28
2023-03-21T13:07:43.658Z,2.72
2023-03-21T13:09:18.065Z,2.80
2023-03-21T13:10:23.232Z,2.80
2023-03-21T13:11:28.688Z,2.42
2023-03-21T13:12:37.147Z,2.75
2023-03-21T13:14:01.467Z,2.65
2023-03-21T13:15:07.978Z,2.38
2023-03-21T13:16:18.136Z,2.38
2023-03-21T13:17:30.953Z,3.03
2023-03-21T13:18:51.755Z,2.97
2023-03-21T13:21:25.950Z,2.97
2023-03-21T13:22:30.032Z,2.60
2023-03-21T13:23:37.482Z,2.45
2023-03-21T13:24:50.628Z,2.83
2023-03-21T13:25:55.514Z,3.70
2023-03-21T13:26:58.131Z,3.80
2023-03-21T13:28:03.987Z,3.70
2023-03-21T13:29:14.457Z,2.58
2023-03-21T13:30:27.950Z,2.72
2023-03-21T13:31:45.270Z,2.95
2023-03-21T13:33:05.959Z,2.72
2023-03-21T13:34:09.679Z,3.03
2023-03-21T13:35:29.104Z,2.85
2023-03-21T13:36:33.564Z,2.75
2023-03-21T13:37:40.221Z,2.50
2023-03-21T13:38:43.328Z,2.55
2023-03-21T13:39:47.627Z,2.65
2023-03-21T13:40:52.395Z,3.05
2023-03-21T13:41:55.196Z,2.50
2023-03-21T13:43:00.344Z,2.25
2023-03-21T13:44:02.804Z,2.75
2023-03-21T13:45:10.986Z,3.08
2023-03-21T13:46:52.201Z,2.50
2023-03-21T13:47:59.110Z,3.10
2023-03-21T13:49:10.686Z,2.95
2023-03-21T13:50:21.870Z,3.08
2023-03-21T13:51:48.677Z,3.42
2023-03-21T13:53:16.126Z,3.50
2023-03-21T13:54:19.653Z,3.60
2023-03-21T13:55:22.426Z,3.40
2023-03-21T13:56:25.383Z,3.90
2023-03-21T13:57:29.436Z,3.53
2023-03-21T13:58:37.503Z,3.38
2023-03-21T13:59:43.406Z,4.00
2023-03-21T14:01:24.711Z,3.50
2023-03-21T14:03:34.765Z,3.08
2023-03-21T14:04:42.546Z,2.92
2023-03-21T14:05:51.844Z,3.58
2023-03-21T14:07:05.969Z,3.25
2023-03-21T14:08:15.782Z,3.05
2023-03-21T14:09:35.536Z,3.53
2023-03-21T14:10:41.778Z,2.90
2023-03-21T14:11:46.777Z,3.10
2023-03-21T14:12:49.848Z,3.38
2023-03-21T14:13:53.814Z,3.67
2023-03-21T14:15:13.910Z,4.13
2023-03-21T14:16:19.683Z,3.97
2023-03-21T14:17:27.020Z,3.78
2023-03-21T14:18:48.099Z,3.53
2023-03-21T14:19:54.763Z,3.45
2023-03-21T14:20:59.652Z,3.28
2023-03-21T14:22:04.736Z,3.70
2023-03-21T14:23:09.229Z,3.15
2023-03-21T14:24:15.165Z,3.45
2023-03-21T14:25:20.693Z,4.00
2023-03-21T14:26:25.096Z,3.88
2023-03-21T14:27:37.866Z,4.25
2023-03-21T14:28:47.326Z,3.53
2023-03-21T14:29:51.544Z,3.67
2023-03-21T14:31:00.322Z,4.28
2023-03-21T14:32:04.445Z,4.20
2023-03-21T14:33:25.932Z,4.38
2023-03-21T14:34:31.250Z,4.13
2023-03-21T14:35:34.211Z,3.78
2023-03-21T14:36:43.155Z,3.75
2023-03-21T14:37:48.371Z,4.00
2023-03-21T14:39:18.660Z,3.47
2023-03-21T14:40:27.184Z,3.03
2023-03-21T14:41:31.523Z,3.60
2023-03-21T14:42:35.839Z,4.28
2023-03-21T14:43:38.225Z,4.65
2023-03-21T14:44:56.686Z,4.38
2023-03-21T14:45:59.549Z,4.43
2023-03-21T14:47:07.243Z,4.47
2023-03-21T14:48:14.790Z,4.05
2023-03-21T14:49:29.542Z,3.70
2023-03-21T14:50:34.840Z,3.88
2023-03-21T14:51:37.534Z,3.90
2023-03-21T14:52:41.619Z,3.83
2023-03-21T14:53:45.279Z,4.25
2023-03-21T14:54:48.144Z,3.28
2023-03-21T14:55:53.325Z,4.82
2023-03-21T14:57:00.746Z,5.05
2023-03-21T14:58:05.124Z,4.32
2023-03-21T14:59:12.211Z,4.72
2023-03-21T15:00:33.148Z,4.35
2023-03-21T15:01:35.940Z,4.28
2023-03-21T15:02:40.787Z,5.18
2023-03-21T15:03:47.688Z,3.85
2023-03-21T15:04:53.949Z,3.58
2023-03-21T15:05:56.821Z,4.55
2023-03-21T15:07:05.036Z,4.00
2023-03-21T15:08:09.204Z,3.92
2023-03-21T15:09:16.437Z,3.53
2023-03-21T15:10:19.156Z,3.92
2023-03-21T15:11:38.043Z,4.53
2023-03-21T15:12:59.781Z,4.18
2023-03-21T15:14:05.625Z,4.53
2023-03-21T15:15:10.631Z,4.20
2023-03-21T15:16:15.111Z,4.00
2023-03-21T15:17:17.891Z,4.15